sensor_id;sensor_type;location;lat;lon;timestamp;temperature;humidity
16128;DHT22;8168;49.036;7.690;2022-10-30T00:01:59;13.00;99.90
16128;DHT22;8168;49.036;7.690;2022-10-30T00:04:30;13.00;99.90
16128;DHT22;8168;49.036;7.690;2022-10-30T00:07:01;13.10;99.90
16128;DHT22;8168;49.036;7.690;2022-10-30T00:09:32;13.00;99.90
16128;DHT22;8168;49.036;7.690;2022-10-30T00:12:02;13.00;99.90
16128;DHT22;8168;49.036;7.690;2022-10-30T00:14:33;12.90;99.90
16128;DHT22;8168;49.036;7.690;2022-10-30T00:17:04;12.90;99.90
16128;DHT22;8168;49.036;7.690;2022-10-30T00:19:34;12.90;99.90
16128;DHT22;8168;49.036;7.690;2022-10-30T00:22:05;12.90;99.90
16128;DHT22;8168;49.036;7.690;2022-10-30T00:24:35;12.90;99.90
16128;DHT22;8168;49.036;7.690;2022-10-30T00:27:06;12.90;99.90
16128;DHT22;8168;49.036;7.690;2022-10-30T00:29:37;12.90;99.90
16128;DHT22;8168;49.036;7.690;2022-10-30T00:32:07;12.90;99.90
16128;DHT22;8168;49.036;7.690;2022-10-30T00:34:38;12.90;99.90
16128;DHT22;8168;49.036;7.690;2022-10-30T00:37:08;12.90;99.90
16128;DHT22;8168;49.036;7.690;2022-10-30T00:39:39;12.90;99.90
16128;DHT22;8168;49.036;7.690;2022-10-30T00:42:13;12.80;99.90
16128;DHT22;8168;49.036;7.690;2022-10-30T00:44:49;12.90;99.90
16128;DHT22;8168;49.036;7.690;2022-10-30T00:47:33;12.90;99.90
16128;DHT22;8168;49.036;7.690;2022-10-30T00:50:24;12.90;99.90
16128;DHT22;8168;49.036;7.690;2022-10-30T00:53:06;12.90;99.90
16128;DHT22;8168;49.036;7.690;2022-10-30T00:55:42;12.80;99.90
16128;DHT22;8168;49.036;7.690;2022-10-30T00:58:17;12.80;99.90
16128;DHT22;8168;49.036;7.690;2022-10-30T01:00:51;12.80;99.90
16128;DHT22;8168;49.036;7.690;2022-10-30T01:03:24;12.70;99.90
16128;DHT22;8168;49.036;7.690;2022-10-30T01:05:59;12.80;99.90
16128;DHT22;8168;49.036;7.690;2022-10-30T01:08:31;12.70;99.90
16128;DHT22;8168;49.036;7.690;2022-10-30T01:11:02;12.70;99.90
16128;DHT22;8168;49.036;7.690;2022-10-30T01:13:35;12.70;99.90
16128;DHT22;8168;49.036;7.690;2022-10-30T01:38:57;12.40;99.90
16128;DHT22;8168;49.036;7.690;2022-10-30T01:41:29;12.30;99.90
16128;DHT22;8168;49.036;7.690;2022-10-30T01:44:04;12.30;99.90
16128;DHT22;8168;49.036;7.690;2022-10-30T01:50:28;12.30;99.90
16128;DHT22;8168;49.036;7.690;2022-10-30T01:55:35;12.20;99.90
16128;DHT22;8168;49.036;7.690;2022-10-30T01:58:18;12.20;99.90
16128;DHT22;8168;49.036;7.690;2022-10-30T02:00:54;12.10;99.90
16128;DHT22;8168;49.036;7.690;2022-10-30T02:03:26;12.10;99.90
16128;DHT22;8168;49.036;7.690;2022-10-30T02:05:57;12.00;99.90
16128;DHT22;8168;49.036;7.690;2022-10-30T02:08:28;12.00;99.90
16128;DHT22;8168;49.036;7.690;2022-10-30T02:10:58;12.00;99.90
16128;DHT22;8168;49.036;7.690;2022-10-30T02:13:29;12.00;99.90
16128;DHT22;8168;49.036;7.690;2022-10-30T02:16:00;11.90;99.90
16128;DHT22;8168;49.036;7.690;2022-10-30T02:18:31;11.90;99.90
16128;DHT22;8168;49.036;7.690;2022-10-30T02:21:02;11.90;99.90
16128;DHT22;8168;49.036;7.690;2022-10-30T02:23:32;11.80;99.90
16128;DHT22;8168;49.036;7.690;2022-10-30T02:26:03;11.80;99.90
16128;DHT22;8168;49.036;7.690;2022-10-30T02:28:34;11.80;99.90
16128;DHT22;8168;49.036;7.690;2022-10-30T02:31:04;11.80;99.90
16128;DHT22;8168;49.036;7.690;2022-10-30T02:33:36;11.80;99.90
16128;DHT22;8168;49.036;7.690;2022-10-30T02:36:07;11.80;99.90
16128;DHT22;8168;49.036;7.690;2022-10-30T02:38:38;11.70;99.90
16128;DHT22;8168;49.036;7.690;2022-10-30T02:41:09;11.70;99.90
16128;DHT22;8168;49.036;7.690;2022-10-30T02:43:40;11.70;99.90
16128;DHT22;8168;49.036;7.690;2022-10-30T02:46:10;11.60;99.90
16128;DHT22;8168;49.036;7.690;2022-10-30T02:48:41;11.60;99.90
16128;DHT22;8168;49.036;7.690;2022-10-30T02:51:11;11.50;99.90
16128;DHT22;8168;49.036;7.690;2022-10-30T02:53:42;11.50;99.90
16128;DHT22;8168;49.036;7.690;2022-10-30T02:56:13;11.50;99.90
16128;DHT22;8168;49.036;7.690;2022-10-30T02:58:44;11.40;99.90
16128;DHT22;8168;49.036;7.690;2022-10-30T03:01:17;11.40;99.90
16128;DHT22;8168;49.036;7.690;2022-10-30T03:03:48;11.40;99.90
16128;DHT22;8168;49.036;7.690;2022-10-30T03:06:18;11.40;99.90
16128;DHT22;8168;49.036;7.690;2022-10-30T03:08:49;11.40;99.90
16128;DHT22;8168;49.036;7.690;2022-10-30T03:11:20;11.30;99.90
16128;DHT22;8168;49.036;7.690;2022-10-30T03:13:51;11.30;99.90
16128;DHT22;8168;49.036;7.690;2022-10-30T03:16:23;11.30;99.90
16128;DHT22;8168;49.036;7.690;2022-10-30T03:18:55;11.30;99.90
16128;DHT22;8168;49.036;7.690;2022-10-30T03:21:27;11.20;99.90
16128;DHT22;8168;49.036;7.690;2022-10-30T03:23:58;11.20;99.90
16128;DHT22;8168;49.036;7.690;2022-10-30T03:26:29;11.20;99.90
16128;DHT22;8168;49.036;7.690;2022-10-30T03:28:59;11.20;99.90
16128;DHT22;8168;49.036;7.690;2022-10-30T03:31:30;11.10;99.90
16128;DHT22;8168;49.036;7.690;2022-10-30T03:34:02;11.10;99.90
16128;DHT22;8168;49.036;7.690;2022-10-30T03:36:32;11.10;99.90
16128;DHT22;8168;49.036;7.690;2022-10-30T03:39:03;11.00;99.90
16128;DHT22;8168;49.036;7.690;2022-10-30T03:41:34;11.00;99.90
16128;DHT22;8168;49.036;7.690;2022-10-30T03:44:05;11.00;99.90
16128;DHT22;8168;49.036;7.690;2022-10-30T03:46:35;10.90;99.90
16128;DHT22;8168;49.036;7.690;2022-10-30T03:49:06;10.90;99.90
16128;DHT22;8168;49.036;7.690;2022-10-30T03:51:36;10.90;99.90
16128;DHT22;8168;49.036;7.690;2022-10-30T03:54:07;10.80;99.90
16128;DHT22;8168;49.036;7.690;2022-10-30T03:56:37;10.70;99.90
16128;DHT22;8168;49.036;7.690;2022-10-30T03:59:08;10.70;99.90
16128;DHT22;8168;49.036;7.690;2022-10-30T04:01:39;10.60;99.90
16128;DHT22;8168;49.036;7.690;2022-10-30T04:04:09;10.60;99.90
16128;DHT22;8168;49.036;7.690;2022-10-30T04:06:40;10.60;99.90
16128;DHT22;8168;49.036;7.690;2022-10-30T04:09:10;10.60;99.90
16128;DHT22;8168;49.036;7.690;2022-10-30T04:11:41;11.90;99.90
16128;DHT22;8168;49.036;7.690;2022-10-30T04:14:12;10.50;99.90
16128;DHT22;8168;49.036;7.690;2022-10-30T04:16:42;10.50;99.90
16128;DHT22;8168;49.036;7.690;2022-10-30T04:19:13;10.40;99.90
16128;DHT22;8168;49.036;7.690;2022-10-30T04:21:43;10.40;99.90
16128;DHT22;8168;49.036;7.690;2022-10-30T04:24:17;10.40;99.90
16128;DHT22;8168;49.036;7.690;2022-10-30T04:26:48;10.40;99.90
16128;DHT22;8168;49.036;7.690;2022-10-30T04:29:18;10.30;99.90
16128;DHT22;8168;49.036;7.690;2022-10-30T04:31:49;10.40;99.90
16128;DHT22;8168;49.036;7.690;2022-10-30T04:34:20;10.40;99.90
16128;DHT22;8168;49.036;7.690;2022-10-30T04:36:50;10.30;99.90
16128;DHT22;8168;49.036;7.690;2022-10-30T04:39:21;10.30;99.90
16128;DHT22;8168;49.036;7.690;2022-10-30T04:41:52;10.20;99.90
16128;DHT22;8168;49.036;7.690;2022-10-30T04:44:22;10.20;99.90
16128;DHT22;8168;49.036;7.690;2022-10-30T04:46:53;10.20;99.90
16128;DHT22;8168;49.036;7.690;2022-10-30T04:49:23;10.10;99.90
16128;DHT22;8168;49.036;7.690;2022-10-30T04:51:54;10.10;99.90
16128;DHT22;8168;49.036;7.690;2022-10-30T04:54:25;10.10;99.90
16128;DHT22;8168;49.036;7.690;2022-10-30T04:56:56;10.10;99.90
16128;DHT22;8168;49.036;7.690;2022-10-30T04:59:27;10.10;99.90
16128;DHT22;8168;49.036;7.690;2022-10-30T05:01:57;10.10;99.90
16128;DHT22;8168;49.036;7.690;2022-10-30T05:04:28;10.10;99.90
16128;DHT22;8168;49.036;7.690;2022-10-30T05:06:58;10.00;99.90
16128;DHT22;8168;49.036;7.690;2022-10-30T05:09:29;10.10;99.90
16128;DHT22;8168;49.036;7.690;2022-10-30T05:12:00;10.00;99.90
16128;DHT22;8168;49.036;7.690;2022-10-30T05:14:31;10.00;99.90
16128;DHT22;8168;49.036;7.690;2022-10-30T05:17:02;10.00;99.90
16128;DHT22;8168;49.036;7.690;2022-10-30T05:19:33;10.00;99.90
16128;DHT22;8168;49.036;7.690;2022-10-30T05:22:03;9.90;99.90
16128;DHT22;8168;49.036;7.690;2022-10-30T05:24:34;9.90;99.90
16128;DHT22;8168;49.036;7.690;2022-10-30T05:27:04;9.90;99.90
16128;DHT22;8168;49.036;7.690;2022-10-30T05:29:35;9.90;99.90
16128;DHT22;8168;49.036;7.690;2022-10-30T05:32:06;9.90;99.90
16128;DHT22;8168;49.036;7.690;2022-10-30T05:34:36;9.80;99.90
16128;DHT22;8168;49.036;7.690;2022-10-30T05:37:07;9.80;99.90
16128;DHT22;8168;49.036;7.690;2022-10-30T05:39:37;9.80;99.90
16128;DHT22;8168;49.036;7.690;2022-10-30T05:42:08;9.80;99.90
16128;DHT22;8168;49.036;7.690;2022-10-30T05:44:39;9.70;99.90
16128;DHT22;8168;49.036;7.690;2022-10-30T05:47:10;9.70;99.90
16128;DHT22;8168;49.036;7.690;2022-10-30T05:49:41;9.70;99.90
16128;DHT22;8168;49.036;7.690;2022-10-30T05:52:12;9.70;99.90
16128;DHT22;8168;49.036;7.690;2022-10-30T05:54:42;9.70;99.90
16128;DHT22;8168;49.036;7.690;2022-10-30T05:57:13;9.70;99.90
16128;DHT22;8168;49.036;7.690;2022-10-30T05:59:43;9.60;99.90
16128;DHT22;8168;49.036;7.690;2022-10-30T06:02:16;9.60;99.90
16128;DHT22;8168;49.036;7.690;2022-10-30T06:04:46;9.60;99.90
16128;DHT22;8168;49.036;7.690;2022-10-30T06:07:17;9.60;99.90
16128;DHT22;8168;49.036;7.690;2022-10-30T06:09:47;9.50;99.90
16128;DHT22;8168;49.036;7.690;2022-10-30T06:12:18;8.10;99.90
16128;DHT22;8168;49.036;7.690;2022-10-30T06:14:49;9.50;99.90
16128;DHT22;8168;49.036;7.690;2022-10-30T06:17:19;9.50;99.90
16128;DHT22;8168;49.036;7.690;2022-10-30T06:19:50;9.50;99.90
16128;DHT22;8168;49.036;7.690;2022-10-30T06:22:20;9.50;99.90
16128;DHT22;8168;49.036;7.690;2022-10-30T06:24:51;9.50;99.90
16128;DHT22;8168;49.036;7.690;2022-10-30T06:27:21;6.90;99.90
16128;DHT22;8168;49.036;7.690;2022-10-30T06:29:52;9.40;99.90
16128;DHT22;8168;49.036;7.690;2022-10-30T06:32:24;9.40;99.90
16128;DHT22;8168;49.036;7.690;2022-10-30T06:34:54;9.40;99.90
16128;DHT22;8168;49.036;7.690;2022-10-30T06:37:25;9.40;99.90
16128;DHT22;8168;49.036;7.690;2022-10-30T06:39:55;9.40;99.90
16128;DHT22;8168;49.036;7.690;2022-10-30T06:42:26;9.40;99.90
16128;DHT22;8168;49.036;7.690;2022-10-30T06:44:57;9.40;99.90
16128;DHT22;8168;49.036;7.690;2022-10-30T06:47:27;9.40;99.90
16128;DHT22;8168;49.036;7.690;2022-10-30T06:49:58;9.40;99.90
16128;DHT22;8168;49.036;7.690;2022-10-30T06:52:28;9.40;99.90
16128;DHT22;8168;49.036;7.690;2022-10-30T06:54:59;9.40;99.90
16128;DHT22;8168;49.036;7.690;2022-10-30T06:57:30;9.40;99.90
16128;DHT22;8168;49.036;7.690;2022-10-30T07:00:00;9.40;99.90
16128;DHT22;8168;49.036;7.690;2022-10-30T07:02:31;9.40;99.90
16128;DHT22;8168;49.036;7.690;2022-10-30T07:05:02;9.40;99.90
16128;DHT22;8168;49.036;7.690;2022-10-30T07:07:33;9.40;99.90
16128;DHT22;8168;49.036;7.690;2022-10-30T07:10:04;9.50;99.90
16128;DHT22;8168;49.036;7.690;2022-10-30T07:12:35;9.50;99.90
16128;DHT22;8168;49.036;7.690;2022-10-30T07:15:06;9.50;99.90
16128;DHT22;8168;49.036;7.690;2022-10-30T07:17:36;9.50;99.90
16128;DHT22;8168;49.036;7.690;2022-10-30T07:20:07;9.60;99.90
16128;DHT22;8168;49.036;7.690;2022-10-30T07:22:38;9.60;99.90
16128;DHT22;8168;49.036;7.690;2022-10-30T07:25:08;9.60;99.90
16128;DHT22;8168;49.036;7.690;2022-10-30T07:27:47;9.60;99.90
16128;DHT22;8168;49.036;7.690;2022-10-30T07:30:20;9.70;99.90
16128;DHT22;8168;49.036;7.690;2022-10-30T07:32:59;9.70;99.90
16128;DHT22;8168;49.036;7.690;2022-10-30T07:35:31;9.80;99.90
16128;DHT22;8168;49.036;7.690;2022-10-30T07:38:03;9.80;99.90
16128;DHT22;8168;49.036;7.690;2022-10-30T07:40:34;9.80;99.90
16128;DHT22;8168;49.036;7.690;2022-10-30T07:43:05;9.80;99.90
16128;DHT22;8168;49.036;7.690;2022-10-30T07:45:36;9.80;99.90
16128;DHT22;8168;49.036;7.690;2022-10-30T07:48:06;9.90;99.90
16128;DHT22;8168;49.036;7.690;2022-10-30T07:50:37;9.90;99.90
16128;DHT22;8168;49.036;7.690;2022-10-30T07:53:08;10.00;99.90
16128;DHT22;8168;49.036;7.690;2022-10-30T07:55:38;10.00;99.90
16128;DHT22;8168;49.036;7.690;2022-10-30T07:58:09;10.10;99.90
16128;DHT22;8168;49.036;7.690;2022-10-30T08:00:39;8.90;99.90
16128;DHT22;8168;49.036;7.690;2022-10-30T08:03:10;10.10;99.90
16128;DHT22;8168;49.036;7.690;2022-10-30T08:05:42;10.20;99.90
16128;DHT22;8168;49.036;7.690;2022-10-30T08:08:12;10.20;99.90
16128;DHT22;8168;49.036;7.690;2022-10-30T08:10:43;10.30;99.90
16128;DHT22;8168;49.036;7.690;2022-10-30T08:13:13;10.30;99.90
16128;DHT22;8168;49.036;7.690;2022-10-30T08:15:44;10.40;99.90
16128;DHT22;8168;49.036;7.690;2022-10-30T08:18:14;10.50;99.90
16128;DHT22;8168;49.036;7.690;2022-10-30T08:20:48;10.60;99.90
16128;DHT22;8168;49.036;7.690;2022-10-30T08:23:19;10.70;99.90
16128;DHT22;8168;49.036;7.690;2022-10-30T08:25:51;10.70;99.90
16128;DHT22;8168;49.036;7.690;2022-10-30T08:28:21;10.80;99.90
16128;DHT22;8168;49.036;7.690;2022-10-30T08:30:52;10.90;99.90
16128;DHT22;8168;49.036;7.690;2022-10-30T08:33:23;11.00;99.90
16128;DHT22;8168;49.036;7.690;2022-10-30T08:35:55;11.10;99.90
16128;DHT22;8168;49.036;7.690;2022-10-30T08:38:27;11.20;99.90
16128;DHT22;8168;49.036;7.690;2022-10-30T08:41:00;11.30;99.90
16128;DHT22;8168;49.036;7.690;2022-10-30T08:43:30;11.40;99.90
16128;DHT22;8168;49.036;7.690;2022-10-30T08:46:01;11.50;99.90
16128;DHT22;8168;49.036;7.690;2022-10-30T08:48:31;11.60;99.90
16128;DHT22;8168;49.036;7.690;2022-10-30T08:51:02;11.80;99.90
16128;DHT22;8168;49.036;7.690;2022-10-30T08:53:33;11.80;99.90
16128;DHT22;8168;49.036;7.690;2022-10-30T08:56:04;12.00;99.90
16128;DHT22;8168;49.036;7.690;2022-10-30T08:58:34;12.10;99.90
16128;DHT22;8168;49.036;7.690;2022-10-30T09:01:05;12.20;99.90
16128;DHT22;8168;49.036;7.690;2022-10-30T09:03:35;12.30;99.90
16128;DHT22;8168;49.036;7.690;2022-10-30T09:06:08;12.40;99.90
16128;DHT22;8168;49.036;7.690;2022-10-30T09:08:39;12.50;99.90
16128;DHT22;8168;49.036;7.690;2022-10-30T09:11:09;12.70;99.90
16128;DHT22;8168;49.036;7.690;2022-10-30T09:13:40;12.80;99.90
16128;DHT22;8168;49.036;7.690;2022-10-30T09:16:11;13.00;99.90
16128;DHT22;8168;49.036;7.690;2022-10-30T09:18:42;13.10;99.90
16128;DHT22;8168;49.036;7.690;2022-10-30T09:21:12;13.30;99.90
16128;DHT22;8168;49.036;7.690;2022-10-30T09:23:43;13.50;99.90
16128;DHT22;8168;49.036;7.690;2022-10-30T09:26:14;13.70;99.90
16128;DHT22;8168;49.036;7.690;2022-10-30T09:28:44;13.90;99.90
16128;DHT22;8168;49.036;7.690;2022-10-30T09:31:15;14.10;99.90
16128;DHT22;8168;49.036;7.690;2022-10-30T09:33:46;14.30;99.90
16128;DHT22;8168;49.036;7.690;2022-10-30T09:36:17;14.60;99.90
16128;DHT22;8168;49.036;7.690;2022-10-30T09:38:47;14.80;99.90
16128;DHT22;8168;49.036;7.690;2022-10-30T09:52:36;15.80;99.90
16128;DHT22;8168;49.036;7.690;2022-10-30T10:06:43;16.20;99.90
16128;DHT22;8168;49.036;7.690;2022-10-30T10:09:17;16.20;99.90
16128;DHT22;8168;49.036;7.690;2022-10-30T10:12:02;16.30;99.90
16128;DHT22;8168;49.036;7.690;2022-10-30T10:14:37;16.30;99.90
16128;DHT22;8168;49.036;7.690;2022-10-30T10:17:24;16.40;99.90
16128;DHT22;8168;49.036;7.690;2022-10-30T10:19:59;16.50;99.90
16128;DHT22;8168;49.036;7.690;2022-10-30T10:22:47;16.50;99.90
16128;DHT22;8168;49.036;7.690;2022-10-30T10:25:19;16.60;99.90
16128;DHT22;8168;49.036;7.690;2022-10-30T10:30:22;16.80;99.90
16128;DHT22;8168;49.036;7.690;2022-10-30T10:33:21;16.90;99.90
16128;DHT22;8168;49.036;7.690;2022-10-30T10:39:13;17.20;99.90
16128;DHT22;8168;49.036;7.690;2022-10-30T10:50:13;17.70;99.90
16128;DHT22;8168;49.036;7.690;2022-10-30T10:52:51;17.80;99.90
16128;DHT22;8168;49.036;7.690;2022-10-30T10:55:26;17.80;99.90
16128;DHT22;8168;49.036;7.690;2022-10-30T10:58:02;17.90;99.90
16128;DHT22;8168;49.036;7.690;2022-10-30T11:00:34;17.90;99.90
16128;DHT22;8168;49.036;7.690;2022-10-30T11:03:11;17.90;99.90
16128;DHT22;8168;49.036;7.690;2022-10-30T11:05:57;17.80;99.90
16128;DHT22;8168;49.036;7.690;2022-10-30T11:08:31;18.00;99.90
16128;DHT22;8168;49.036;7.690;2022-10-30T11:11:05;18.00;99.90
16128;DHT22;8168;49.036;7.690;2022-10-30T11:13:41;18.10;99.90
16128;DHT22;8168;49.036;7.690;2022-10-30T11:16:29;18.00;99.90
16128;DHT22;8168;49.036;7.690;2022-10-30T11:19:06;18.10;99.90
16128;DHT22;8168;49.036;7.690;2022-10-30T11:21:41;18.10;99.90
16128;DHT22;8168;49.036;7.690;2022-10-30T11:24:34;18.20;99.90
16128;DHT22;8168;49.036;7.690;2022-10-30T11:27:19;18.40;99.90
16128;DHT22;8168;49.036;7.690;2022-10-30T11:29:59;18.60;99.90
16128;DHT22;8168;49.036;7.690;2022-10-30T11:32:32;18.70;99.90
16128;DHT22;8168;49.036;7.690;2022-10-30T11:37:39;18.90;99.90
16128;DHT22;8168;49.036;7.690;2022-10-30T11:42:42;19.10;99.90
16128;DHT22;8168;49.036;7.690;2022-10-30T11:45:26;19.20;99.90
16128;DHT22;8168;49.036;7.690;2022-10-30T11:47:59;19.30;99.90
16128;DHT22;8168;49.036;7.690;2022-10-30T11:50:31;19.50;99.90
16128;DHT22;8168;49.036;7.690;2022-10-30T11:53:10;19.70;99.90
16128;DHT22;8168;49.036;7.690;2022-10-30T11:55:48;19.80;99.90
16128;DHT22;8168;49.036;7.690;2022-10-30T11:58:31;19.90;99.90
16128;DHT22;8168;49.036;7.690;2022-10-30T12:01:22;19.90;99.90
16128;DHT22;8168;49.036;7.690;2022-10-30T12:03:54;20.10;99.90
16128;DHT22;8168;49.036;7.690;2022-10-30T12:06:28;20.30;99.90
16128;DHT22;8168;49.036;7.690;2022-10-30T12:09:20;20.40;99.90
16128;DHT22;8168;49.036;7.690;2022-10-30T12:11:51;20.60;99.90
16128;DHT22;8168;49.036;7.690;2022-10-30T12:14:23;20.60;99.90
16128;DHT22;8168;49.036;7.690;2022-10-30T12:16:56;20.50;99.90
16128;DHT22;8168;49.036;7.690;2022-10-30T12:19:26;20.40;99.90
16128;DHT22;8168;49.036;7.690;2022-10-30T12:21:57;20.40;99.90
16128;DHT22;8168;49.036;7.690;2022-10-30T12:24:36;20.50;99.90
16128;DHT22;8168;49.036;7.690;2022-10-30T12:27:12;20.50;99.90
16128;DHT22;8168;49.036;7.690;2022-10-30T12:29:57;20.50;99.90
16128;DHT22;8168;49.036;7.690;2022-10-30T12:32:39;20.70;99.90
16128;DHT22;8168;49.036;7.690;2022-10-30T12:35:34;20.80;99.90
16128;DHT22;8168;49.036;7.690;2022-10-30T12:38:28;20.80;99.90
16128;DHT22;8168;49.036;7.690;2022-10-30T12:43:47;20.80;99.90
16128;DHT22;8168;49.036;7.690;2022-10-30T12:49:25;20.70;99.90
16128;DHT22;8168;49.036;7.690;2022-10-30T12:52:12;20.70;99.90
16128;DHT22;8168;49.036;7.690;2022-10-30T13:03:40;21.30;99.90
16128;DHT22;8168;49.036;7.690;2022-10-30T13:06:18;21.30;99.90
16128;DHT22;8168;49.036;7.690;2022-10-30T13:09:14;21.40;99.90
16128;DHT22;8168;49.036;7.690;2022-10-30T13:11:52;21.50;99.90
16128;DHT22;8168;49.036;7.690;2022-10-30T13:14:35;21.60;99.90
16128;DHT22;8168;49.036;7.690;2022-10-30T13:17:11;21.70;99.90
16128;DHT22;8168;49.036;7.690;2022-10-30T13:19:46;21.80;99.90
16128;DHT22;8168;49.036;7.690;2022-10-30T13:22:33;21.90;99.90
16128;DHT22;8168;49.036;7.690;2022-10-30T13:27:51;21.90;99.90
16128;DHT22;8168;49.036;7.690;2022-10-30T13:30:27;21.90;99.90
16128;DHT22;8168;49.036;7.690;2022-10-30T13:38:59;21.90;99.90
16128;DHT22;8168;49.036;7.690;2022-10-30T13:44:36;21.90;99.90
16128;DHT22;8168;49.036;7.690;2022-10-30T13:47:16;21.90;99.90
16128;DHT22;8168;49.036;7.690;2022-10-30T13:52:58;21.80;99.90
16128;DHT22;8168;49.036;7.690;2022-10-30T13:55:33;21.70;99.90
16128;DHT22;8168;49.036;7.690;2022-10-30T13:58:20;21.70;99.90
16128;DHT22;8168;49.036;7.690;2022-10-30T14:01:04;21.60;99.90
16128;DHT22;8168;49.036;7.690;2022-10-30T14:11:42;21.50;99.90
16128;DHT22;8168;49.036;7.690;2022-10-30T14:17:13;21.50;99.90
16128;DHT22;8168;49.036;7.690;2022-10-30T14:22:36;21.40;99.90
16128;DHT22;8168;49.036;7.690;2022-10-30T14:25:13;21.40;99.90
16128;DHT22;8168;49.036;7.690;2022-10-30T14:27:54;21.30;99.90
16128;DHT22;8168;49.036;7.690;2022-10-30T14:30:26;21.30;99.90
16128;DHT22;8168;49.036;7.690;2022-10-30T14:32:57;21.20;99.90
16128;DHT22;8168;49.036;7.690;2022-10-30T14:35:33;21.20;99.90
16128;DHT22;8168;49.036;7.690;2022-10-30T14:43:33;21.00;99.90
16128;DHT22;8168;49.036;7.690;2022-10-30T14:46:25;20.90;99.90
16128;DHT22;8168;49.036;7.690;2022-10-30T14:51:58;20.80;99.90
16128;DHT22;8168;49.036;7.690;2022-10-30T14:54:44;20.80;99.90
16128;DHT22;8168;49.036;7.690;2022-10-30T14:57:43;20.70;99.90
16128;DHT22;8168;49.036;7.690;2022-10-30T15:08:56;20.60;99.90
16128;DHT22;8168;49.036;7.690;2022-10-30T15:14:23;20.50;99.90
16128;DHT22;8168;49.036;7.690;2022-10-30T15:16:55;20.40;99.90
16128;DHT22;8168;49.036;7.690;2022-10-30T15:19:27;20.30;99.90
16128;DHT22;8168;49.036;7.690;2022-10-30T15:21:58;20.20;99.90
16128;DHT22;8168;49.036;7.690;2022-10-30T15:24:29;20.20;99.90
16128;DHT22;8168;49.036;7.690;2022-10-30T15:27:02;20.00;99.90
16128;DHT22;8168;49.036;7.690;2022-10-30T15:29:35;19.90;99.90
16128;DHT22;8168;49.036;7.690;2022-10-30T15:32:17;19.80;99.90
16128;DHT22;8168;49.036;7.690;2022-10-30T15:37:23;19.60;99.90
16128;DHT22;8168;49.036;7.690;2022-10-30T15:40:15;19.50;99.90
16128;DHT22;8168;49.036;7.690;2022-10-30T15:42:47;19.40;99.90
16128;DHT22;8168;49.036;7.690;2022-10-30T15:48:05;19.10;99.90
16128;DHT22;8168;49.036;7.690;2022-10-30T15:50:41;19.00;99.90
16128;DHT22;8168;49.036;7.690;2022-10-30T15:53:18;19.00;99.90
16128;DHT22;8168;49.036;7.690;2022-10-30T15:55:50;18.90;99.90
16128;DHT22;8168;49.036;7.690;2022-10-30T15:58:21;18.80;99.90
16128;DHT22;8168;49.036;7.690;2022-10-30T16:00:57;18.80;99.90
16128;DHT22;8168;49.036;7.690;2022-10-30T16:03:28;18.60;99.90
16128;DHT22;8168;49.036;7.690;2022-10-30T16:06:14;18.50;99.90
16128;DHT22;8168;49.036;7.690;2022-10-30T16:08:46;18.40;99.90
16128;DHT22;8168;49.036;7.690;2022-10-30T16:11:17;18.40;99.90
16128;DHT22;8168;49.036;7.690;2022-10-30T16:13:51;18.20;99.90
16128;DHT22;8168;49.036;7.690;2022-10-30T16:16:26;18.10;99.90
16128;DHT22;8168;49.036;7.690;2022-10-30T16:18:59;18.00;99.90
16128;DHT22;8168;49.036;7.690;2022-10-30T16:21:30;17.90;99.90
16128;DHT22;8168;49.036;7.690;2022-10-30T16:24:02;17.80;99.90
16128;DHT22;8168;49.036;7.690;2022-10-30T16:26:35;17.80;99.90
16128;DHT22;8168;49.036;7.690;2022-10-30T16:31:44;17.60;99.90
16128;DHT22;8168;49.036;7.690;2022-10-30T16:34:24;17.60;99.90
16128;DHT22;8168;49.036;7.690;2022-10-30T16:36:56;17.60;99.90
16128;DHT22;8168;49.036;7.690;2022-10-30T16:39:27;17.50;99.90
16128;DHT22;8168;49.036;7.690;2022-10-30T16:41:59;17.50;99.90
16128;DHT22;8168;49.036;7.690;2022-10-30T16:44:32;17.40;99.90
16128;DHT22;8168;49.036;7.690;2022-10-30T16:47:19;17.30;99.90
16128;DHT22;8168;49.036;7.690;2022-10-30T16:49:54;17.30;99.90
16128;DHT22;8168;49.036;7.690;2022-10-30T16:52:44;17.20;99.90
16128;DHT22;8168;49.036;7.690;2022-10-30T16:55:19;17.00;99.90
16128;DHT22;8168;49.036;7.690;2022-10-30T16:57:55;16.80;99.90
16128;DHT22;8168;49.036;7.690;2022-10-30T17:00:27;16.80;99.90
16128;DHT22;8168;49.036;7.690;2022-10-30T17:03:06;16.70;99.90
16128;DHT22;8168;49.036;7.690;2022-10-30T17:05:39;16.60;99.90
16128;DHT22;8168;49.036;7.690;2022-10-30T17:11:01;16.40;99.90
16128;DHT22;8168;49.036;7.690;2022-10-30T17:13:36;16.40;99.90
16128;DHT22;8168;49.036;7.690;2022-10-30T17:16:27;16.30;99.90
16128;DHT22;8168;49.036;7.690;2022-10-30T17:19:00;16.10;99.90
16128;DHT22;8168;49.036;7.690;2022-10-30T17:21:41;16.00;99.90
16128;DHT22;8168;49.036;7.690;2022-10-30T17:24:19;15.90;99.90
16128;DHT22;8168;49.036;7.690;2022-10-30T17:26:58;15.80;99.90
16128;DHT22;8168;49.036;7.690;2022-10-30T17:32:25;15.70;99.90
16128;DHT22;8168;49.036;7.690;2022-10-30T17:35:12;15.70;99.90
16128;DHT22;8168;49.036;7.690;2022-10-30T17:37:44;15.60;99.90
16128;DHT22;8168;49.036;7.690;2022-10-30T17:40:15;15.40;99.90
16128;DHT22;8168;49.036;7.690;2022-10-30T17:42:47;15.30;99.90
16128;DHT22;8168;49.036;7.690;2022-10-30T17:45:18;15.30;99.90
16128;DHT22;8168;49.036;7.690;2022-10-30T17:47:49;15.20;99.90
16128;DHT22;8168;49.036;7.690;2022-10-30T17:50:19;15.20;99.90
16128;DHT22;8168;49.036;7.690;2022-10-30T17:52:50;15.00;99.90
16128;DHT22;8168;49.036;7.690;2022-10-30T17:55:24;14.90;99.90
16128;DHT22;8168;49.036;7.690;2022-10-30T17:57:56;14.90;99.90
16128;DHT22;8168;49.036;7.690;2022-10-30T18:00:27;14.90;99.90
16128;DHT22;8168;49.036;7.690;2022-10-30T18:02:57;14.80;99.90
16128;DHT22;8168;49.036;7.690;2022-10-30T18:05:28;14.80;99.90
16128;DHT22;8168;49.036;7.690;2022-10-30T18:08:00;14.70;99.90
16128;DHT22;8168;49.036;7.690;2022-10-30T18:10:30;14.60;99.90
16128;DHT22;8168;49.036;7.690;2022-10-30T18:13:01;14.60;99.90
16128;DHT22;8168;49.036;7.690;2022-10-30T18:15:37;14.50;99.90
16128;DHT22;8168;49.036;7.690;2022-10-30T18:18:10;14.50;99.90
16128;DHT22;8168;49.036;7.690;2022-10-30T18:20:40;14.40;99.90
16128;DHT22;8168;49.036;7.690;2022-10-30T18:23:22;14.30;99.90
16128;DHT22;8168;49.036;7.690;2022-10-30T18:25:53;14.30;99.90
16128;DHT22;8168;49.036;7.690;2022-10-30T18:28:23;14.20;99.90
16128;DHT22;8168;49.036;7.690;2022-10-30T18:30:55;14.10;99.90
16128;DHT22;8168;49.036;7.690;2022-10-30T18:33:26;14.10;99.90
16128;DHT22;8168;49.036;7.690;2022-10-30T18:35:58;14.00;99.90
16128;DHT22;8168;49.036;7.690;2022-10-30T18:38:28;14.00;99.90
16128;DHT22;8168;49.036;7.690;2022-10-30T18:40:59;14.00;99.90
16128;DHT22;8168;49.036;7.690;2022-10-30T18:43:29;14.00;99.90
16128;DHT22;8168;49.036;7.690;2022-10-30T18:46:00;13.90;99.90
16128;DHT22;8168;49.036;7.690;2022-10-30T18:48:31;13.90;99.90
16128;DHT22;8168;49.036;7.690;2022-10-30T18:51:03;13.80;99.90
16128;DHT22;8168;49.036;7.690;2022-10-30T18:53:33;13.80;99.90
16128;DHT22;8168;49.036;7.690;2022-10-30T18:56:04;13.80;99.90